sensor_id;sensor_type;location;lat;lon;timestamp;P1;durP1;ratioP1;P2;durP2;ratioP2
20411;SDS011;10365;52.578;8.138;2023-05-18T00:02:20;12.63;;;3.25;;
20411;SDS011;10365;52.578;8.138;2023-05-18T00:04:45;10.30;;;3.10;;
20411;SDS011;10365;52.578;8.138;2023-05-18T00:07:11;9.40;;;3.90;;
20411;SDS011;10365;52.578;8.138;2023-05-18T00:09:36;7.55;;;3.33;;
20411;SDS011;10365;52.578;8.138;2023-05-18T00:12:02;8.00;;;3.15;;
20411;SDS011;10365;52.578;8.138;2023-05-18T00:14:28;10.63;;;3.42;;
20411;SDS011;10365;52.578;8.138;2023-05-18T00:16:54;10.02;;;3.20;;
20411;SDS011;10365;52.578;8.138;2023-05-18T00:19:20;5.55;;;2.78;;
20411;SDS011;10365;52.578;8.138;2023-05-18T00:21:46;5.07;;;2.70;;
20411;SDS011;10365;52.578;8.138;2023-05-18T00:24:12;13.13;;;3.10;;
20411;SDS011;10365;52.578;8.138;2023-05-18T00:26:38;8.90;;;3.20;;
20411;SDS011;10365;52.578;8.138;2023-05-18T00:29:04;6.63;;;2.95;;
20411;SDS011;10365;52.578;8.138;2023-05-18T00:31:29;12.30;;;3.58;;
20411;SDS011;10365;52.578;8.138;2023-05-18T00:33:57;7.38;;;2.88;;
20411;SDS011;10365;52.578;8.138;2023-05-18T00:36:22;12.48;;;3.35;;
20411;SDS011;10365;52.578;8.138;2023-05-18T00:38:47;8.10;;;3.17;;
20411;SDS011;10365;52.578;8.138;2023-05-18T00:41:13;10.85;;;3.70;;
20411;SDS011;10365;52.578;8.138;2023-05-18T00:43:41;7.63;;;3.33;;
20411;SDS011;10365;52.578;8.138;2023-05-18T00:46:07;8.80;;;3.03;;
20411;SDS011;10365;52.578;8.138;2023-05-18T00:48:32;13.50;;;3.45;;
20411;SDS011;10365;52.578;8.138;2023-05-18T00:50:57;10.50;;;3.70;;
20411;SDS011;10365;52.578;8.138;2023-05-18T00:53:23;9.68;;;3.67;;
20411;SDS011;10365;52.578;8.138;2023-05-18T00:55:48;8.63;;;4.05;;
20411;SDS011;10365;52.578;8.138;2023-05-18T00:58:13;11.43;;;3.10;;
20411;SDS011;10365;52.578;8.138;2023-05-18T01:00:39;7.55;;;3.17;;
20411;SDS011;10365;52.578;8.138;2023-05-18T01:03:04;14.43;;;4.15;;
20411;SDS011;10365;52.578;8.138;2023-05-18T01:05:30;5.88;;;2.75;;
20411;SDS011;10365;52.578;8.138;2023-05-18T01:07:56;8.18;;;3.55;;
20411;SDS011;10365;52.578;8.138;2023-05-18T01:10:22;9.48;;;3.50;;
20411;SDS011;10365;52.578;8.138;2023-05-18T01:15:25;10.07;;;3.40;;
20411;SDS011;10365;52.578;8.138;2023-05-18T01:25:49;14.73;;;3.45;;
20411;SDS011;10365;52.578;8.138;2023-05-18T01:28:19;10.52;;;3.65;;
20411;SDS011;10365;52.578;8.138;2023-05-18T01:30:45;7.00;;;3.60;;
20411;SDS011;10365;52.578;8.138;2023-05-18T01:33:11;10.85;;;3.00;;
20411;SDS011;10365;52.578;8.138;2023-05-18T01:35:37;9.48;;;3.50;;
20411;SDS011;10365;52.578;8.138;2023-05-18T01:38:02;11.40;;;3.80;;
20411;SDS011;10365;52.578;8.138;2023-05-18T01:40:30;11.45;;;3.25;;
20411;SDS011;10365;52.578;8.138;2023-05-18T01:42:57;9.15;;;3.92;;
20411;SDS011;10365;52.578;8.138;2023-05-18T01:45:25;7.78;;;3.30;;
20411;SDS011;10365;52.578;8.138;2023-05-18T01:47:55;12.48;;;4.20;;
20411;SDS011;10365;52.578;8.138;2023-05-18T01:50:21;7.70;;;3.88;;
20411;SDS011;10365;52.578;8.138;2023-05-18T01:55:15;8.13;;;3.25;;
20411;SDS011;10365;52.578;8.138;2023-05-18T01:57:41;13.70;;;4.03;;
20411;SDS011;10365;52.578;8.138;2023-05-18T02:00:08;16.65;;;3.97;;
20411;SDS011;10365;52.578;8.138;2023-05-18T02:02:45;9.35;;;3.97;;
20411;SDS011;10365;52.578;8.138;2023-05-18T02:05:12;9.20;;;3.50;;
20411;SDS011;10365;52.578;8.138;2023-05-18T02:07:38;9.45;;;3.88;;
20411;SDS011;10365;52.578;8.138;2023-05-18T02:10:05;9.05;;;3.47;;
20411;SDS011;10365;52.578;8.138;2023-05-18T02:12:31;14.95;;;4.20;;
20411;SDS011;10365;52.578;8.138;2023-05-18T02:14:56;11.65;;;3.58;;
20411;SDS011;10365;52.578;8.138;2023-05-18T02:17:23;8.77;;;3.42;;
20411;SDS011;10365;52.578;8.138;2023-05-18T02:19:50;12.70;;;3.90;;
20411;SDS011;10365;52.578;8.138;2023-05-18T02:22:15;13.70;;;4.03;;
20411;SDS011;10365;52.578;8.138;2023-05-18T02:24:41;9.07;;;3.35;;
20411;SDS011;10365;52.578;8.138;2023-05-18T02:27:06;10.77;;;3.05;;
20411;SDS011;10365;52.578;8.138;2023-05-18T02:29:32;11.20;;;3.30;;
20411;SDS011;10365;52.578;8.138;2023-05-18T02:31:57;7.97;;;3.13;;
20411;SDS011;10365;52.578;8.138;2023-05-18T02:34:24;9.55;;;4.35;;
20411;SDS011;10365;52.578;8.138;2023-05-18T02:36:51;9.00;;;3.97;;
20411;SDS011;10365;52.578;8.138;2023-05-18T02:39:17;9.68;;;3.35;;
20411;SDS011;10365;52.578;8.138;2023-05-18T02:41:42;17.48;;;3.80;;
20411;SDS011;10365;52.578;8.138;2023-05-18T02:44:08;13.75;;;3.58;;
20411;SDS011;10365;52.578;8.138;2023-05-18T02:46:33;11.88;;;3.80;;
20411;SDS011;10365;52.578;8.138;2023-05-18T02:48:59;10.10;;;3.88;;
20411;SDS011;10365;52.578;8.138;2023-05-18T02:51:24;11.98;;;3.58;;
20411;SDS011;10365;52.578;8.138;2023-05-18T02:53:51;11.60;;;3.80;;
20411;SDS011;10365;52.578;8.138;2023-05-18T02:56:17;7.07;;;3.10;;
20411;SDS011;10365;52.578;8.138;2023-05-18T02:58:49;10.35;;;3.80;;
20411;SDS011;10365;52.578;8.138;2023-05-18T03:01:21;12.35;;;4.28;;
20411;SDS011;10365;52.578;8.138;2023-05-18T03:03:51;11.93;;;3.90;;
20411;SDS011;10365;52.578;8.138;2023-05-18T03:06:17;6.60;;;3.55;;
20411;SDS011;10365;52.578;8.138;2023-05-18T03:08:51;13.10;;;4.00;;
20411;SDS011;10365;52.578;8.138;2023-05-18T03:11:21;9.20;;;3.35;;
20411;SDS011;10365;52.578;8.138;2023-05-18T03:13:47;12.70;;;3.90;;
20411;SDS011;10365;52.578;8.138;2023-05-18T03:16:13;9.60;;;3.42;;
20411;SDS011;10365;52.578;8.138;2023-05-18T03:18:39;12.40;;;3.75;;
20411;SDS011;10365;52.578;8.138;2023-05-18T03:21:05;10.43;;;3.67;;
20411;SDS011;10365;52.578;8.138;2023-05-18T03:23:33;8.00;;;3.42;;
20411;SDS011;10365;52.578;8.138;2023-05-18T03:26:00;11.48;;;3.60;;
20411;SDS011;10365;52.578;8.138;2023-05-18T03:28:28;15.70;;;3.88;;
20411;SDS011;10365;52.578;8.138;2023-05-18T03:30:55;9.57;;;3.50;;
20411;SDS011;10365;52.578;8.138;2023-05-18T03:33:21;14.52;;;4.18;;
20411;SDS011;10365;52.578;8.138;2023-05-18T03:35:47;9.73;;;3.92;;
20411;SDS011;10365;52.578;8.138;2023-05-18T03:38:12;11.05;;;3.78;;
20411;SDS011;10365;52.578;8.138;2023-05-18T03:40:42;7.80;;;3.63;;
20411;SDS011;10365;52.578;8.138;2023-05-18T03:43:08;7.03;;;3.88;;
20411;SDS011;10365;52.578;8.138;2023-05-18T03:45:35;19.45;;;4.30;;
20411;SDS011;10365;52.578;8.138;2023-05-18T03:48:01;14.10;;;4.30;;
20411;SDS011;10365;52.578;8.138;2023-05-18T03:50:27;16.60;;;4.43;;
20411;SDS011;10365;52.578;8.138;2023-05-18T03:52:54;8.35;;;3.95;;
20411;SDS011;10365;52.578;8.138;2023-05-18T03:55:19;10.50;;;4.60;;
20411;SDS011;10365;52.578;8.138;2023-05-18T03:57:46;10.60;;;5.00;;
20411;SDS011;10365;52.578;8.138;2023-05-18T04:00:11;12.88;;;4.63;;
20411;SDS011;10365;52.578;8.138;2023-05-18T04:02:43;10.20;;;4.47;;
20411;SDS011;10365;52.578;8.138;2023-05-18T04:05:09;9.18;;;4.35;;
20411;SDS011;10365;52.578;8.138;2023-05-18T04:07:34;12.23;;;5.10;;
20411;SDS011;10365;52.578;8.138;2023-05-18T04:10:10;8.45;;;4.38;;
20411;SDS011;10365;52.578;8.138;2023-05-18T04:12:36;11.32;;;4.97;;
20411;SDS011;10365;52.578;8.138;2023-05-18T04:15:02;17.20;;;5.05;;
20411;SDS011;10365;52.578;8.138;2023-05-18T04:17:30;10.63;;;5.07;;
20411;SDS011;10365;52.578;8.138;2023-05-18T04:19:57;16.98;;;4.55;;
20411;SDS011;10365;52.578;8.138;2023-05-18T04:22:22;11.57;;;4.82;;
20411;SDS011;10365;52.578;8.138;2023-05-18T04:24:48;16.45;;;5.30;;
20411;SDS011;10365;52.578;8.138;2023-05-18T04:27:14;12.20;;;4.90;;
20411;SDS011;10365;52.578;8.138;2023-05-18T04:29:40;14.25;;;5.15;;
20411;SDS011;10365;52.578;8.138;2023-05-18T04:32:10;11.40;;;4.82;;
20411;SDS011;10365;52.578;8.138;2023-05-18T04:34:46;11.45;;;4.13;;
20411;SDS011;10365;52.578;8.138;2023-05-18T04:37:22;10.35;;;4.93;;
20411;SDS011;10365;52.578;8.138;2023-05-18T04:39:48;13.65;;;5.03;;
20411;SDS011;10365;52.578;8.138;2023-05-18T04:42:18;13.25;;;4.30;;
20411;SDS011;10365;52.578;8.138;2023-05-18T04:44:46;16.08;;;5.45;;
20411;SDS011;10365;52.578;8.138;2023-05-18T04:47:21;8.13;;;4.28;;
20411;SDS011;10365;52.578;8.138;2023-05-18T04:49:52;9.98;;;4.47;;
20411;SDS011;10365;52.578;8.138;2023-05-18T04:52:29;18.23;;;4.90;;
20411;SDS011;10365;52.578;8.138;2023-05-18T04:55:04;17.75;;;4.75;;
20411;SDS011;10365;52.578;8.138;2023-05-18T04:57:36;13.23;;;5.55;;
20411;SDS011;10365;52.578;8.138;2023-05-18T05:00:03;14.70;;;4.78;;
20411;SDS011;10365;52.578;8.138;2023-05-18T05:02:31;13.85;;;4.65;;
20411;SDS011;10365;52.578;8.138;2023-05-18T05:05:00;12.00;;;6.05;;
20411;SDS011;10365;52.578;8.138;2023-05-18T05:07:30;15.60;;;6.45;;
20411;SDS011;10365;52.578;8.138;2023-05-18T05:09:56;16.20;;;5.35;;
20411;SDS011;10365;52.578;8.138;2023-05-18T05:12:25;14.80;;;5.22;;
20411;SDS011;10365;52.578;8.138;2023-05-18T05:14:53;14.15;;;5.97;;
20411;SDS011;10365;52.578;8.138;2023-05-18T05:17:21;21.30;;;6.50;;
20411;SDS011;10365;52.578;8.138;2023-05-18T05:19:52;18.42;;;6.00;;
20411;SDS011;10365;52.578;8.138;2023-05-18T05:22:25;10.98;;;6.32;;
20411;SDS011;10365;52.578;8.138;2023-05-18T05:24:54;18.02;;;6.75;;
20411;SDS011;10365;52.578;8.138;2023-05-18T05:27:24;17.15;;;6.18;;
20411;SDS011;10365;52.578;8.138;2023-05-18T05:29:50;10.70;;;5.95;;
20411;SDS011;10365;52.578;8.138;2023-05-18T05:32:15;19.25;;;5.82;;
20411;SDS011;10365;52.578;8.138;2023-05-18T05:34:42;14.68;;;5.68;;
20411;SDS011;10365;52.578;8.138;2023-05-18T05:37:11;15.48;;;5.70;;
20411;SDS011;10365;52.578;8.138;2023-05-18T05:39:36;18.55;;;6.20;;
20411;SDS011;10365;52.578;8.138;2023-05-18T05:42:04;16.90;;;5.47;;
20411;SDS011;10365;52.578;8.138;2023-05-18T05:44:30;13.43;;;5.05;;
20411;SDS011;10365;52.578;8.138;2023-05-18T05:46:55;18.45;;;6.60;;
20411;SDS011;10365;52.578;8.138;2023-05-18T05:49:21;19.08;;;6.18;;
20411;SDS011;10365;52.578;8.138;2023-05-18T05:51:47;17.30;;;6.40;;
20411;SDS011;10365;52.578;8.138;2023-05-18T05:54:13;18.45;;;5.88;;
20411;SDS011;10365;52.578;8.138;2023-05-18T05:56:39;13.43;;;5.60;;
20411;SDS011;10365;52.578;8.138;2023-05-18T05:59:04;10.25;;;4.70;;
20411;SDS011;10365;52.578;8.138;2023-05-18T06:01:30;15.15;;;5.28;;
20411;SDS011;10365;52.578;8.138;2023-05-18T06:03:56;13.30;;;5.60;;
20411;SDS011;10365;52.578;8.138;2023-05-18T06:06:22;12.98;;;5.35;;
20411;SDS011;10365;52.578;8.138;2023-05-18T06:08:47;11.65;;;5.20;;
20411;SDS011;10365;52.578;8.138;2023-05-18T06:11:15;10.77;;;4.70;;
20411;SDS011;10365;52.578;8.138;2023-05-18T06:13:40;15.07;;;4.95;;
20411;SDS011;10365;52.578;8.138;2023-05-18T06:16:06;11.80;;;4.50;;
20411;SDS011;10365;52.578;8.138;2023-05-18T06:18:31;16.83;;;5.03;;
20411;SDS011;10365;52.578;8.138;2023-05-18T06:21:01;19.40;;;4.85;;
20411;SDS011;10365;52.578;8.138;2023-05-18T06:23:26;12.88;;;4.63;;
20411;SDS011;10365;52.578;8.138;2023-05-18T06:26:00;10.38;;;4.65;;
20411;SDS011;10365;52.578;8.138;2023-05-18T06:28:44;12.98;;;4.78;;
20411;SDS011;10365;52.578;8.138;2023-05-18T06:31:17;14.45;;;4.80;;
20411;SDS011;10365;52.578;8.138;2023-05-18T06:33:47;13.73;;;5.10;;
20411;SDS011;10365;52.578;8.138;2023-05-18T06:36:13;11.48;;;4.35;;
20411;SDS011;10365;52.578;8.138;2023-05-18T06:38:39;11.27;;;4.90;;
20411;SDS011;10365;52.578;8.138;2023-05-18T06:41:05;11.65;;;3.53;;
20411;SDS011;10365;52.578;8.138;2023-05-18T06:43:30;10.20;;;4.45;;
20411;SDS011;10365;52.578;8.138;2023-05-18T06:46:02;15.73;;;4.47;;
20411;SDS011;10365;52.578;8.138;2023-05-18T06:48:32;9.55;;;4.45;;
20411;SDS011;10365;52.578;8.138;2023-05-18T06:50:59;9.23;;;4.57;;
20411;SDS011;10365;52.578;8.138;2023-05-18T06:53:24;13.65;;;5.28;;
20411;SDS011;10365;52.578;8.138;2023-05-18T06:55:50;10.95;;;5.30;;
20411;SDS011;10365;52.578;8.138;2023-05-18T06:58:15;17.40;;;5.18;;
20411;SDS011;10365;52.578;8.138;2023-05-18T07:00:41;11.02;;;5.10;;
20411;SDS011;10365;52.578;8.138;2023-05-18T07:03:07;13.68;;;5.18;;
20411;SDS011;10365;52.578;8.138;2023-05-18T07:05:33;15.13;;;4.70;;
20411;SDS011;10365;52.578;8.138;2023-05-18T07:07:58;12.60;;;4.97;;
20411;SDS011;10365;52.578;8.138;2023-05-18T07:10:23;13.10;;;5.38;;
20411;SDS011;10365;52.578;8.138;2023-05-18T07:12:49;8.75;;;4.68;;
20411;SDS011;10365;52.578;8.138;2023-05-18T07:15:14;12.75;;;5.38;;
20411;SDS011;10365;52.578;8.138;2023-05-18T07:17:40;16.42;;;5.45;;
20411;SDS011;10365;52.578;8.138;2023-05-18T07:20:05;9.80;;;4.53;;
20411;SDS011;10365;52.578;8.138;2023-05-18T07:22:32;18.20;;;5.68;;
20411;SDS011;10365;52.578;8.138;2023-05-18T07:24:57;13.55;;;5.30;;
20411;SDS011;10365;52.578;8.138;2023-05-18T07:27:23;13.48;;;5.28;;
20411;SDS011;10365;52.578;8.138;2023-05-18T07:29:48;13.98;;;4.75;;
20411;SDS011;10365;52.578;8.138;2023-05-18T07:32:14;16.38;;;5.43;;
20411;SDS011;10365;52.578;8.138;2023-05-18T07:34:39;12.60;;;4.88;;
20411;SDS011;10365;52.578;8.138;2023-05-18T07:37:10;12.15;;;5.13;;
20411;SDS011;10365;52.578;8.138;2023-05-18T07:39:36;10.55;;;4.75;;
20411;SDS011;10365;52.578;8.138;2023-05-18T07:42:02;7.75;;;4.47;;
20411;SDS011;10365;52.578;8.138;2023-05-18T07:44:28;9.10;;;4.22;;
20411;SDS011;10365;52.578;8.138;2023-05-18T07:46:53;13.27;;;4.68;;
20411;SDS011;10365;52.578;8.138;2023-05-18T07:49:19;6.32;;;3.47;;
20411;SDS011;10365;52.578;8.138;2023-05-18T07:51:47;12.00;;;4.47;;
20411;SDS011;10365;52.578;8.138;2023-05-18T07:54:12;10.82;;;4.50;;
20411;SDS011;10365;52.578;8.138;2023-05-18T07:56:38;13.45;;;4.75;;
20411;SDS011;10365;52.578;8.138;2023-05-18T07:59:03;11.02;;;4.28;;
20411;SDS011;10365;52.578;8.138;2023-05-18T08:01:28;10.43;;;3.85;;
20411;SDS011;10365;52.578;8.138;2023-05-18T08:03:56;15.52;;;3.83;;
20411;SDS011;10365;52.578;8.138;2023-05-18T08:06:21;11.25;;;3.40;;
20411;SDS011;10365;52.578;8.138;2023-05-18T08:08:47;11.30;;;3.00;;
20411;SDS011;10365;52.578;8.138;2023-05-18T08:11:12;10.57;;;2.92;;
20411;SDS011;10365;52.578;8.138;2023-05-18T08:13:37;10.25;;;2.25;;
20411;SDS011;10365;52.578;8.138;2023-05-18T08:16:03;4.97;;;2.05;;
20411;SDS011;10365;52.578;8.138;2023-05-18T08:18:31;10.32;;;2.92;;
20411;SDS011;10365;52.578;8.138;2023-05-18T08:20:56;6.78;;;2.45;;
20411;SDS011;10365;52.578;8.138;2023-05-18T08:23:25;13.00;;;2.40;;
20411;SDS011;10365;52.578;8.138;2023-05-18T08:25:50;9.77;;;2.72;;
20411;SDS011;10365;52.578;8.138;2023-05-18T08:28:15;6.18;;;2.95;;
20411;SDS011;10365;52.578;8.138;2023-05-18T08:30:41;13.07;;;2.65;;
20411;SDS011;10365;52.578;8.138;2023-05-18T08:33:06;8.48;;;2.42;;
20411;SDS011;10365;52.578;8.138;2023-05-18T08:35:32;12.75;;;3.00;;
20411;SDS011;10365;52.578;8.138;2023-05-18T08:37:57;7.93;;;2.17;;
20411;SDS011;10365;52.578;8.138;2023-05-18T08:40:24;8.00;;;1.90;;
20411;SDS011;10365;52.578;8.138;2023-05-18T08:42:56;7.68;;;1.95;;
20411;SDS011;10365;52.578;8.138;2023-05-18T08:45:31;9.57;;;2.55;;
20411;SDS011;10365;52.578;8.138;2023-05-18T08:47:59;7.90;;;2.00;;
20411;SDS011;10365;52.578;8.138;2023-05-18T08:50:25;12.15;;;2.25;;
20411;SDS011;10365;52.578;8.138;2023-05-18T08:52:53;7.55;;;2.65;;
20411;SDS011;10365;52.578;8.138;2023-05-18T08:55:19;9.48;;;2.53;;
20411;SDS011;10365;52.578;8.138;2023-05-18T08:57:49;10.95;;;2.40;;
20411;SDS011;10365;52.578;8.138;2023-05-18T09:00:19;6.55;;;2.10;;
20411;SDS011;10365;52.578;8.138;2023-05-18T09:02:45;7.60;;;1.95;;
20411;SDS011;10365;52.578;8.138;2023-05-18T09:05:11;9.13;;;2.95;;
20411;SDS011;10365;52.578;8.138;2023-05-18T09:07:38;9.45;;;2.60;;
20411;SDS011;10365;52.578;8.138;2023-05-18T09:10:05;9.07;;;2.47;;
20411;SDS011;10365;52.578;8.138;2023-05-18T09:12:31;12.43;;;1.90;;
20411;SDS011;10365;52.578;8.138;2023-05-18T09:14:57;10.35;;;2.20;;
20411;SDS011;10365;52.578;8.138;2023-05-18T09:17:24;4.30;;;1.70;;
20411;SDS011;10365;52.578;8.138;2023-05-18T09:19:49;13.75;;;2.05;;
20411;SDS011;10365;52.578;8.138;2023-05-18T09:22:15;6.30;;;1.98;;
20411;SDS011;10365;52.578;8.138;2023-05-18T09:24:40;10.88;;;2.35;;
20411;SDS011;10365;52.578;8.138;2023-05-18T09:27:06;7.30;;;2.15;;
20411;SDS011;10365;52.578;8.138;2023-05-18T09:29:31;8.20;;;1.67;;
20411;SDS011;10365;52.578;8.138;2023-05-18T09:31:56;6.78;;;2.20;;
20411;SDS011;10365;52.578;8.138;2023-05-18T09:34:26;8.45;;;2.42;;
20411;SDS011;10365;52.578;8.138;2023-05-18T09:37:02;7.90;;;2.00;;
20411;SDS011;10365;52.578;8.138;2023-05-18T09:39:28;9.45;;;2.55;;
20411;SDS011;10365;52.578;8.138;2023-05-18T09:41:54;10.50;;;2.75;;
20411;SDS011;10365;52.578;8.138;2023-05-18T09:44:29;10.15;;;2.80;;
20411;SDS011;10365;52.578;8.138;2023-05-18T09:46:55;8.60;;;2.50;;
20411;SDS011;10365;52.578;8.138;2023-05-18T09:49:20;10.40;;;2.17;;
20411;SDS011;10365;52.578;8.138;2023-05-18T09:51:47;7.20;;;2.50;;
20411;SDS011;10365;52.578;8.138;2023-05-18T09:54:12;5.43;;;2.05;;
20411;SDS011;10365;52.578;8.138;2023-05-18T09:56:38;12.02;;;2.60;;
20411;SDS011;10365;52.578;8.138;2023-05-18T09:59:07;11.70;;;2.60;;
20411;SDS011;10365;52.578;8.138;2023-05-18T10:01:32;9.82;;;1.95;;
20411;SDS011;10365;52.578;8.138;2023-05-18T10:04:01;12.48;;;2.78;;
20411;SDS011;10365;52.578;8.138;2023-05-18T10:06:27;7.85;;;2.00;;
20411;SDS011;10365;52.578;8.138;2023-05-18T10:08:55;10.63;;;3.30;;
20411;SDS011;10365;52.578;8.138;2023-05-18T10:11:20;12.88;;;6.32;;
20411;SDS011;10365;52.578;8.138;2023-05-18T10:13:51;10.82;;;2.50;;
20411;SDS011;10365;52.578;8.138;2023-05-18T10:16:17;8.82;;;3.35;;
20411;SDS011;10365;52.578;8.138;2023-05-18T10:18:43;6.53;;;3.33;;
20411;SDS011;10365;52.578;8.138;2023-05-18T10:21:09;8.70;;;2.97;;
20411;SDS011;10365;52.578;8.138;2023-05-18T10:23:36;7.68;;;4.00;;
20411;SDS011;10365;52.578;8.138;2023-05-18T10:26:04;7.55;;;2.45;;
20411;SDS011;10365;52.578;8.138;2023-05-18T10:28:40;9.57;;;5.32;;
20411;SDS011;10365;52.578;8.138;2023-05-18T10:31:06;5.30;;;2.00;;
20411;SDS011;10365;52.578;8.138;2023-05-18T10:33:32;8.32;;;2.28;;
20411;SDS011;10365;52.578;8.138;2023-05-18T10:35:59;8.88;;;2.30;;
20411;SDS011;10365;52.578;8.138;2023-05-18T10:38:27;7.40;;;1.92;;
20411;SDS011;10365;52.578;8.138;2023-05-18T10:40:53;9.35;;;2.08;;
20411;SDS011;10365;52.578;8.138;2023-05-18T10:43:20;8.18;;;2.05;;
20411;SDS011;10365;52.578;8.138;2023-05-18T10:45:47;5.85;;;1.70;;
20411;SDS011;10365;52.578;8.138;2023-05-18T10:48:12;6.10;;;2.20;;
20411;SDS011;10365;52.578;8.138;2023-05-18T10:50:39;6.85;;;2.08;;
20411;SDS011;10365;52.578;8.138;2023-05-18T10:53:04;8.98;;;2.40;;
20411;SDS011;10365;52.578;8.138;2023-05-18T10:55:30;6.85;;;1.95;;
20411;SDS011;10365;52.578;8.138;2023-05-18T10:57:57;7.28;;;2.08;;
20411;SDS011;10365;52.578;8.138;2023-05-18T11:00:24;7.93;;;1.92;;
20411;SDS011;10365;52.578;8.138;2023-05-18T11:02:50;10.15;;;2.28;;
20411;SDS011;10365;52.578;8.138;2023-05-18T11:05:22;6.53;;;2.10;;
20411;SDS011;10365;52.578;8.138;2023-05-18T11:08:00;9.23;;;2.70;;
20411;SDS011;10365;52.578;8.138;2023-05-18T11:10:43;10.05;;;2.20;;
20411;SDS011;10365;52.578;8.138;2023-05-18T11:13:12;6.20;;;2.28;;
20411;SDS011;10365;52.578;8.138;2023-05-18T11:18:15;5.82;;;2.28;;
20411;SDS011;10365;52.578;8.138;2023-05-18T11:20:40;9.32;;;2.40;;
20411;SDS011;10365;52.578;8.138;2023-05-18T11:23:06;10.00;;;2.72;;
20411;SDS011;10365;52.578;8.138;2023-05-18T11:27:57;6.43;;;2.88;;
20411;SDS011;10365;52.578;8.138;2023-05-18T11:33:13;11.68;;;3.00;;
20411;SDS011;10365;52.578;8.138;2023-05-18T11:38:44;7.10;;;3.00;;
20411;SDS011;10365;52.578;8.138;2023-05-18T11:41:08;8.05;;;2.50;;
20411;SDS011;10365;52.578;8.138;2023-05-18T11:43:57;5.53;;;2.65;;
20411;SDS011;10365;52.578;8.138;2023-05-18T11:46:22;9.32;;;3.70;;
20411;SDS011;10365;52.578;8.138;2023-05-18T11:48:47;7.80;;;2.88;;
20411;SDS011;10365;52.578;8.138;2023-05-18T11:51:14;11.45;;;2.92;;
20411;SDS011;10365;52.578;8.138;2023-05-18T11:53:40;10.50;;;2.53;;
20411;SDS011;10365;52.578;8.138;2023-05-18T11:56:05;6.53;;;2.30;;
20411;SDS011;10365;52.578;8.138;2023-05-18T11:58:35;6.82;;;2.58;;
20411;SDS011;10365;52.578;8.138;2023-05-18T12:01:01;8.70;;;2.95;;
20411;SDS011;10365;52.578;8.138;2023-05-18T12:03:26;7.75;;;2.00;;
20411;SDS011;10365;52.578;8.138;2023-05-18T12:05:58;7.72;;;2.00;;
20411;SDS011;10365;52.578;8.138;2023-05-18T12:08:24;4.97;;;2.05;;
20411;SDS011;10365;52.578;8.138;2023-05-18T12:10:53;7.53;;;2.25;;
20411;SDS011;10365;52.578;8.138;2023-05-18T12:13:19;10.18;;;2.38;;
20411;SDS011;10365;52.578;8.138;2023-05-18T12:15:44;8.63;;;3.10;;
20411;SDS011;10365;52.578;8.138;2023-05-18T12:18:10;8.00;;;3.10;;
20411;SDS011;10365;52.578;8.138;2023-05-18T12:20:37;7.40;;;3.13;;
20411;SDS011;10365;52.578;8.138;2023-05-18T12:23:03;10.35;;;2.80;;
20411;SDS011;10365;52.578;8.138;2023-05-18T12:25:28;10.52;;;3.15;;
20411;SDS011;10365;52.578;8.138;2023-05-18T12:27:54;9.90;;;3.00;;
20411;SDS011;10365;52.578;8.138;2023-05-18T12:30:21;6.90;;;2.63;;
20411;SDS011;10365;52.578;8.138;2023-05-18T12:32:48;7.57;;;2.75;;
20411;SDS011;10365;52.578;8.138;2023-05-18T12:35:14;7.68;;;2.72;;
20411;SDS011;10365;52.578;8.138;2023-05-18T12:37:41;11.10;;;5.28;;
20411;SDS011;10365;52.578;8.138;2023-05-18T12:40:06;15.55;;;6.55;;
20411;SDS011;10365;52.578;8.138;2023-05-18T12:42:32;13.07;;;5.18;;
20411;SDS011;10365;52.578;8.138;2023-05-18T12:44:58;11.68;;;3.70;;
20411;SDS011;10365;52.578;8.138;2023-05-18T12:47:24;11.50;;;3.08;;
20411;SDS011;10365;52.578;8.138;2023-05-18T12:49:50;8.10;;;2.78;;
20411;SDS011;10365;52.578;8.138;2023-05-18T12:52:15;5.95;;;2.00;;
20411;SDS011;10365;52.578;8.138;2023-05-18T12:54:48;7.80;;;3.65;;
20411;SDS011;10365;52.578;8.138;2023-05-18T12:57:20;8.60;;;2.80;;
20411;SDS011;10365;52.578;8.138;2023-05-18T12:59:48;10.57;;;2.40;;
20411;SDS011;10365;52.578;8.138;2023-05-18T13:02:25;5.95;;;2.47;;
20411;SDS011;10365;52.578;8.138;2023-05-18T13:04:59;7.47;;;2.90;;
20411;SDS011;10365;52.578;8.138;2023-05-18T13:07:25;6.97;;;2.35;;
20411;SDS011;10365;52.578;8.138;2023-05-18T13:09:50;10.50;;;2.70;;
20411;SDS011;10365;52.578;8.138;2023-05-18T13:12:16;6.45;;;2.30;;
20411;SDS011;10365;52.578;8.138;2023-05-18T13:14:41;7.82;;;3.17;;
20411;SDS011;10365;52.578;8.138;2023-05-18T13:17:07;6.10;;;2.67;;
20411;SDS011;10365;52.578;8.138;2023-05-18T13:19:33;8.45;;;2.33;;
20411;SDS011;10365;52.578;8.138;2023-05-18T13:21:58;10.90;;;2.60;;
20411;SDS011;10365;52.578;8.138;2023-05-18T13:24:24;8.07;;;2.97;;
20411;SDS011;10365;52.578;8.138;2023-05-18T13:26:49;8.65;;;2.22;;
20411;SDS011;10365;52.578;8.138;2023-05-18T13:29:15;7.57;;;2.33;;
20411;SDS011;10365;52.578;8.138;2023-05-18T13:31:41;8.70;;;2.33;;
20411;SDS011;10365;52.578;8.138;2023-05-18T13:34:07;10.85;;;3.45;;
20411;SDS011;10365;52.578;8.138;2023-05-18T13:36:32;6.47;;;2.45;;
20411;SDS011;10365;52.578;8.138;2023-05-18T13:38:57;6.30;;;2.17;;
20411;SDS011;10365;52.578;8.138;2023-05-18T13:41:23;9.98;;;2.50;;
20411;SDS011;10365;52.578;8.138;2023-05-18T13:43:48;8.13;;;2.28;;
20411;SDS011;10365;52.578;8.138;2023-05-18T13:46:14;7.70;;;2.33;;
20411;SDS011;10365;52.578;8.138;2023-05-18T13:48:39;9.15;;;2.65;;
20411;SDS011;10365;52.578;8.138;2023-05-18T13:51:05;7.50;;;2.30;;
20411;SDS011;10365;52.578;8.138;2023-05-18T13:53:30;7.05;;;2.33;;
20411;SDS011;10365;52.578;8.138;2023-05-18T13:55:55;8.50;;;2.53;;
20411;SDS011;10365;52.578;8.138;2023-05-18T13:58:21;7.63;;;1.88;;
20411;SDS011;10365;52.578;8.138;2023-05-18T14:00:47;7.93;;;2.10;;
20411;SDS011;10365;52.578;8.138;2023-05-18T14:03:13;8.07;;;2.22;;
20411;SDS011;10365;52.578;8.138;2023-05-18T14:05:39;8.32;;;2.40;;
20411;SDS011;10365;52.578;8.138;2023-05-18T14:08:05;9.07;;;2.20;;
20411;SDS011;10365;52.578;8.138;2023-05-18T14:10:30;8.38;;;1.98;;
20411;SDS011;10365;52.578;8.138;2023-05-18T14:12:55;8.48;;;2.72;;
20411;SDS011;10365;52.578;8.138;2023-05-18T14:15:21;6.03;;;2.28;;
20411;SDS011;10365;52.578;8.138;2023-05-18T14:17:46;5.60;;;2.13;;
20411;SDS011;10365;52.578;8.138;2023-05-18T14:20:12;7.78;;;2.75;;
20411;SDS011;10365;52.578;8.138;2023-05-18T14:22:37;7.03;;;2.38;;
20411;SDS011;10365;52.578;8.138;2023-05-18T14:25:03;7.10;;;2.05;;
20411;SDS011;10365;52.578;8.138;2023-05-18T14:27:29;6.43;;;2.17;;
20411;SDS011;10365;52.578;8.138;2023-05-18T14:29:54;5.07;;;1.95;;
20411;SDS011;10365;52.578;8.138;2023-05-18T14:32:20;7.45;;;1.92;;
20411;SDS011;10365;52.578;8.138;2023-05-18T14:34:45;6.82;;;1.77;;
20411;SDS011;10365;52.578;8.138;2023-05-18T14:37:11;5.80;;;1.90;;
20411;SDS011;10365;52.578;8.138;2023-05-18T14:39:36;10.30;;;2.08;;
20411;SDS011;10365;52.578;8.138;2023-05-18T14:42:03;5.18;;;1.95;;
20411;SDS011;10365;52.578;8.138;2023-05-18T14:44:29;12.73;;;2.25;;
20411;SDS011;10365;52.578;8.138;2023-05-18T14:46:54;5.15;;;2.10;;
20411;SDS011;10365;52.578;8.138;2023-05-18T14:49:20;6.20;;;2.00;;
20411;SDS011;10365;52.578;8.138;2023-05-18T14:51:45;9.98;;;2.38;;
20411;SDS011;10365;52.578;8.138;2023-05-18T14:54:10;9.50;;;2.38;;
20411;SDS011;10365;52.578;8.138;2023-05-18T14:56:38;10.38;;;2.35;;
20411;SDS011;10365;52.578;8.138;2023-05-18T14:59:03;4.97;;;2.53;;
20411;SDS011;10365;52.578;8.138;2023-05-18T15:01:28;6.80;;;2.13;;
20411;SDS011;10365;52.578;8.138;2023-05-18T15:03:54;8.30;;;2.63;;